Strona główna
METAR-TAF:

METAR-TAF

Lotnisko :

Port lotniczy Norwich

Norwich, Anglia

Szerokość geograficzna: 52-38N, Długość geograficzna: 001-18E, wysokość: 14 m

Aktualna obserwacja pogody

Raport powstał 36 minut temu, godzina 22:20 UTC
Wiatr 10 kt od południowy zachód
Temperatura 4°C
Wilgotność 87%
Ciśnienie 1016 hPa
Widzialność 10 km lub więcej

METAR: EGSH 172220Z AUTO 23010KT 9999 NCD 04/02 Q1016

czas: 22:56 (22:56 UTC)

Prognoza

Raport powstał 2 godziny i 57 minut temu, godzina 19:59 UTC
Prognoza ważna od 17 godzina 21 UTC do 17 godzina 24 UTC
Wiatr 10 kt od zachodnio-południowy zachód
Widzialność 10 km lub więcej
Mało chmury na wysokości 4000 ft

TAF: EGSH 171959Z 1721/1724 24010KT 9999 FEW040

Obserwacja i prognoza pogody dla ponad 4000 lotnisk (raport METAR i TAF).

Dostępne stacje oznaczono żółtymi i czerwonymi punktami na mapie.

Najedź kursorem aby zobaczyć nazwę stacji.

Kliknij aby zobaczyć obserwacje i prognozy pogody.

Aby zmienić mapę: kliknij na zielony przycisk z czarnym krzyżykiem, aby powiększyć; na zielony przycisk z myślnikiem, aby pomniejszyć; na zielone strzałki, aby przejść do map sąsiednich.


METAR-TAF: